Time;durP1;ratioP1;P1;durP2;ratioP2;P2;SDS_P1;SDS_P2;PMS_P1;PMS_P2;Temp;Humidity;BMP_temperature;BMP_pressure;BME280_temperature;BME280_humidity;BME280_pressure;Samples;Min_cycle;Max_cycle;Signal;HPM_P1;HPM_P2
2022/10/16 00:00:13;;;;;;;1.60;0.70;;;;;;;;;;5111075;28;20263;-69
2022/10/16 00:02:38;;;;;;;2.50;1.20;;;;;;;;;;5112168;28;20263;-66
2022/10/16 00:05:03;;;;;;;2.87;1.23;;;;;;;;;;5111209;28;20019;-69
2022/10/16 00:07:28;;;;;;;3.75;0.82;;;;;;;;;;5111310;28;20650;-67
2022/10/16 00:09:53;;;;;;;3.45;1.10;;;;;;;;;;5111196;28;20541;-68
2022/10/16 00:12:19;;;;;;;6.23;0.93;;;;;;;;;;5109971;28;20034;-67
2022/10/16 00:14:44;;;;;;;1.75;1.00;;;;;;;;;;5111739;28;20240;-68
2022/10/16 00:17:09;;;;;;;3.07;1.10;;;;;;;;;;5110471;28;20023;-69
2022/10/16 00:19:34;;;;;;;2.17;1.00;;;;;;;;;;5110339;28;20252;-68
2022/10/16 00:21:59;;;;;;;2.23;0.90;;;;;;;;;;5110512;28;20287;-71
2022/10/16 00:24:24;;;;;;;1.47;0.90;;;;;;;;;;5110712;28;20262;-68
2022/10/16 00:26:50;;;;;;;2.00;0.80;;;;;;;;;;5109910;28;20245;-70
2022/10/16 00:29:15;;;;;;;2.50;0.98;;;;;;;;;;5109052;28;20023;-67
2022/10/16 00:31:41;;;;;;;1.55;0.80;;;;;;;;;;5110448;28;20430;-69
2022/10/16 00:34:06;;;;;;;6.30;0.90;;;;;;;;;;5110211;28;20030;-68
2022/10/16 00:36:31;;;;;;;18.93;1.07;;;;;;;;;;5110160;28;20031;-67
2022/10/16 00:38:59;;;;;;;1.77;0.80;;;;;;;;;;5111312;28;20244;-69
2022/10/16 00:41:24;;;;;;;2.03;0.75;;;;;;;;;;5111165;28;20024;-69
2022/10/16 00:43:50;;;;;;;2.38;1.17;;;;;;;;;;5111308;28;20080;-68
2022/10/16 00:46:15;;;;;;;0.73;0.60;;;;;;;;;;5110734;28;20478;-65
2022/10/16 00:48:41;;;;;;;3.05;0.88;;;;;;;;;;5109458;28;20023;-68
2022/10/16 00:51:07;;;;;;;2.17;0.90;;;;;;;;;;5110305;28;20019;-67
2022/10/16 00:53:32;;;;;;;2.30;0.80;;;;;;;;;;5110499;28;20389;-68
2022/10/16 00:55:57;;;;;;;3.83;1.10;;;;;;;;;;5111161;28;20052;-66
2022/10/16 00:58:23;;;;;;;1.10;0.80;;;;;;;;;;5110917;28;20024;-68
2022/10/16 01:00:48;;;;;;;1.70;0.93;;;;;;;;;;5111118;28;20033;-67
2022/10/16 01:03:27;;;;;;;1.38;0.88;;;;;;;;;;5103203;28;20047;-67
2022/10/16 01:06:15;;;;;;;3.35;0.90;;;;;;;;;;5097250;28;20027;-68
2022/10/16 01:08:59;;;;;;;2.42;1.02;;;;;;;;;;5099447;28;20028;-67
2022/10/16 01:11:32;;;;;;;1.35;0.70;;;;;;;;;;5110952;28;20177;-67
2022/10/16 01:13:59;;;;;;;2.38;1.10;;;;;;;;;;5109575;28;20123;-68
2022/10/16 01:16:31;;;;;;;2.53;1.20;;;;;;;;;;5110494;28;20675;-65
2022/10/16 01:19:11;;;;;;;2.22;1.17;;;;;;;;;;5111052;28;20024;-67
2022/10/16 01:21:39;;;;;;;3.78;1.00;;;;;;;;;;5110405;28;20024;-67
2022/10/16 01:24:23;;;;;;;4.60;1.13;;;;;;;;;;5110578;28;20024;-69
2022/10/16 01:26:48;;;;;;;3.55;1.10;;;;;;;;;;5110110;28;20031;-68
2022/10/16 01:29:22;;;;;;;1.40;1.00;;;;;;;;;;5110401;28;20027;-69
2022/10/16 01:31:50;;;;;;;3.15;0.95;;;;;;;;;;5109851;28;20252;-69
2022/10/16 01:34:18;;;;;;;1.70;0.98;;;;;;;;;;5110394;28;20086;-68
2022/10/16 01:37:00;;;;;;;3.20;1.30;;;;;;;;;;5109068;28;20039;-67
2022/10/16 01:39:29;;;;;;;3.40;1.38;;;;;;;;;;5110571;28;20042;-70
2022/10/16 01:41:58;;;;;;;4.88;1.58;;;;;;;;;;5110645;28;20027;-68
2022/10/16 01:44:25;;;;;;;5.32;1.02;;;;;;;;;;5110962;28;20030;-69
2022/10/16 01:46:51;;;;;;;6.45;1.35;;;;;;;;;;5110540;28;20072;-68
2022/10/16 01:49:17;;;;;;;2.15;1.30;;;;;;;;;;5096594;28;20034;-69
2022/10/16 01:51:45;;;;;;;5.80;1.98;;;;;;;;;;5106515;28;20023;-67
2022/10/16 01:54:11;;;;;;;3.38;1.45;;;;;;;;;;5109101;28;20015;-68
2022/10/16 01:56:37;;;;;;;3.25;1.30;;;;;;;;;;5111241;28;20451;-68
2022/10/16 01:59:07;;;;;;;2.20;1.30;;;;;;;;;;5110343;28;20030;-66
2022/10/16 02:01:34;;;;;;;3.17;1.10;;;;;;;;;;5110276;28;20031;-68
2022/10/16 02:04:03;;;;;;;5.32;1.20;;;;;;;;;;5109972;28;20019;-70
2022/10/16 02:06:29;;;;;;;2.85;1.60;;;;;;;;;;5109402;28;20094;-68
2022/10/16 02:08:54;;;;;;;2.75;1.40;;;;;;;;;;5109628;28;20493;-68
2022/10/16 02:11:20;;;;;;;4.30;1.27;;;;;;;;;;5109645;28;20500;-68
2022/10/16 02:13:47;;;;;;;4.00;1.60;;;;;;;;;;5109815;28;20042;-68
2022/10/16 02:16:13;;;;;;;5.05;1.50;;;;;;;;;;5109619;28;20289;-67
2022/10/16 02:18:39;;;;;;;2.38;1.38;;;;;;;;;;5109730;28;20566;-70
2022/10/16 02:21:13;;;;;;;1.40;1.05;;;;;;;;;;5109457;28;20369;-67
2022/10/16 02:23:41;;;;;;;2.70;1.20;;;;;;;;;;5109241;28;20019;-69
2022/10/16 02:26:08;;;;;;;2.03;1.03;;;;;;;;;;5109753;28;20102;-67
2022/10/16 02:28:37;;;;;;;4.53;1.75;;;;;;;;;;5108059;28;20027;-69
2022/10/16 02:31:04;;;;;;;5.55;2.78;;;;;;;;;;5109771;28;20016;-69
2022/10/16 02:33:31;;;;;;;2.83;1.50;;;;;;;;;;5109168;28;20027;-67
2022/10/16 02:35:56;;;;;;;2.28;1.10;;;;;;;;;;5108800;28;20012;-67
2022/10/16 02:38:22;;;;;;;2.88;1.10;;;;;;;;;;5107646;28;20147;-70
2022/10/16 02:40:48;;;;;;;3.40;0.90;;;;;;;;;;5108984;28;20035;-67
2022/10/16 02:43:13;;;;;;;7.03;2.15;;;;;;;;;;5109642;28;20091;-70
2022/10/16 02:45:38;;;;;;;5.00;2.08;;;;;;;;;;5109453;28;20027;-68
2022/10/16 02:48:04;;;;;;;8.68;3.60;;;;;;;;;;5109127;28;20024;-68
2022/10/16 02:50:29;;;;;;;7.97;3.67;;;;;;;;;;5109464;28;20012;-69
2022/10/16 02:52:54;;;;;;;5.05;2.63;;;;;;;;;;5108108;28;20474;-68
2022/10/16 02:55:19;;;;;;;5.50;2.08;;;;;;;;;;5109448;28;20548;-69
2022/10/16 02:57:45;;;;;;;3.57;1.53;;;;;;;;;;5107694;28;20019;-67
2022/10/16 03:00:11;;;;;;;7.05;1.55;;;;;;;;;;5107130;28;20338;-70
2022/10/16 03:02:37;;;;;;;8.80;1.85;;;;;;;;;;5100857;28;20035;-70
2022/10/16 03:05:02;;;;;;;3.73;1.33;;;;;;;;;;5109022;28;20362;-68
2022/10/16 03:07:27;;;;;;;3.65;1.63;;;;;;;;;;5108816;28;20267;-70
2022/10/16 03:09:52;;;;;;;8.68;1.80;;;;;;;;;;5109343;28;20020;-70
2022/10/16 03:12:17;;;;;;;5.43;1.65;;;;;;;;;;5109301;28;20030;-70
2022/10/16 03:14:43;;;;;;;3.17;1.60;;;;;;;;;;5109782;28;20083;-69
2022/10/16 03:17:08;;;;;;;3.33;1.58;;;;;;;;;;5112778;28;20031;-72
2022/10/16 03:19:33;;;;;;;5.55;1.58;;;;;;;;;;5113154;28;20068;-67
2022/10/16 03:21:58;;;;;;;4.55;2.10;;;;;;;;;;5112431;28;20032;-68
2022/10/16 03:24:23;;;;;;;4.25;1.80;;;;;;;;;;5111612;28;20012;-67
2022/10/16 03:26:49;;;;;;;2.90;1.50;;;;;;;;;;5111110;28;20045;-70
2022/10/16 03:29:14;;;;;;;4.93;1.60;;;;;;;;;;5112702;28;20555;-69
2022/10/16 03:31:39;;;;;;;3.70;1.50;;;;;;;;;;5111252;28;20545;-69
2022/10/16 03:34:04;;;;;;;4.05;2.08;;;;;;;;;;5112688;28;20481;-66
2022/10/16 03:36:30;;;;;;;4.88;1.70;;;;;;;;;;5112073;28;20048;-68
2022/10/16 03:38:55;;;;;;;3.28;1.60;;;;;;;;;;5112967;28;20027;-67
2022/10/16 03:41:20;;;;;;;7.80;1.33;;;;;;;;;;5112556;28;20043;-68
2022/10/16 03:43:45;;;;;;;2.13;1.33;;;;;;;;;;5112729;28;20267;-67
2022/10/16 03:46:10;;;;;;;3.67;1.58;;;;;;;;;;5110937;28;20103;-70
2022/10/16 03:48:36;;;;;;;2.05;1.40;;;;;;;;;;5099917;28;20035;-69
2022/10/16 03:51:01;;;;;;;3.25;1.55;;;;;;;;;;5107323;28;20020;-69
2022/10/16 03:53:26;;;;;;;7.20;1.50;;;;;;;;;;5112063;28;20031;-69
2022/10/16 03:55:51;;;;;;;2.47;1.20;;;;;;;;;;5112160;28;20119;-67
2022/10/16 03:58:17;;;;;;;9.40;2.30;;;;;;;;;;5112175;28;20084;-69
2022/10/16 04:00:42;;;;;;;2.45;1.17;;;;;;;;;;5112380;28;20263;-68
2022/10/16 04:03:08;;;;;;;6.22;1.92;;;;;;;;;;5110884;28;20026;-68
2022/10/16 04:05:33;;;;;;;3.70;1.30;;;;;;;;;;5112065;28;20031;-67
2022/10/16 04:07:58;;;;;;;2.55;1.13;;;;;;;;;;5111600;28;20027;-69
2022/10/16 04:10:23;;;;;;;2.47;1.20;;;;;;;;;;5112017;28;20023;-66
2022/10/16 04:12:48;;;;;;;2.83;1.38;;;;;;;;;;5112080;28;20023;-69
2022/10/16 04:15:14;;;;;;;2.13;1.10;;;;;;;;;;5111921;28;20051;-68
2022/10/16 04:17:39;;;;;;;3.08;1.20;;;;;;;;;;5110157;28;20107;-68
2022/10/16 04:20:04;;;;;;;2.03;1.25;;;;;;;;;;5112284;28;20099;-68
2022/10/16 04:22:30;;;;;;;3.05;1.40;;;;;;;;;;5111846;28;20076;-66
2022/10/16 04:24:55;;;;;;;2.20;1.20;;;;;;;;;;5110803;28;20051;-69
2022/10/16 04:27:20;;;;;;;4.10;1.30;;;;;;;;;;5111243;28;20099;-66
2022/10/16 04:29:45;;;;;;;4.90;1.77;;;;;;;;;;5098231;28;20054;-68
2022/10/16 04:32:10;;;;;;;8.00;2.15;;;;;;;;;;5109701;28;20255;-68
2022/10/16 04:34:36;;;;;;;6.33;1.27;;;;;;;;;;5111749;28;20023;-69
2022/10/16 04:37:01;;;;;;;7.43;1.17;;;;;;;;;;5111026;28;20252;-68
2022/10/16 04:39:26;;;;;;;1.83;1.20;;;;;;;;;;5110656;28;20107;-68
2022/10/16 04:41:52;;;;;;;2.90;1.23;;;;;;;;;;5111489;28;20500;-67
2022/10/16 04:44:17;;;;;;;3.28;1.40;;;;;;;;;;5111627;28;20478;-69
2022/10/16 04:46:42;;;;;;;3.77;1.43;;;;;;;;;;5110604;28;20489;-66
2022/10/16 04:49:07;;;;;;;6.18;1.60;;;;;;;;;;5097748;28;20280;-70
2022/10/16 04:51:33;;;;;;;5.00;1.55;;;;;;;;;;5111350;28;20016;-71
2022/10/16 04:53:58;;;;;;;3.40;1.70;;;;;;;;;;5109707;28;20075;-70
2022/10/16 04:56:24;;;;;;;5.78;1.48;;;;;;;;;;5109573;28;20015;-70
2022/10/16 04:58:49;;;;;;;4.65;1.77;;;;;;;;;;5108960;28;20068;-68
2022/10/16 05:01:14;;;;;;;2.92;1.35;;;;;;;;;;5110808;28;20022;-68
2022/10/16 05:03:39;;;;;;;4.85;1.48;;;;;;;;;;5111403;28;20485;-69
2022/10/16 05:06:05;;;;;;;2.45;1.40;;;;;;;;;;5111348;28;20035;-68
2022/10/16 05:08:30;;;;;;;5.00;1.52;;;;;;;;;;5111033;28;20499;-67
2022/10/16 05:10:56;;;;;;;9.15;1.65;;;;;;;;;;5107615;28;20153;-69
2022/10/16 05:13:21;;;;;;;2.20;1.40;;;;;;;;;;5105985;28;20582;-70
2022/10/16 05:15:47;;;;;;;1.98;1.35;;;;;;;;;;5111443;28;20035;-71
2022/10/16 05:18:12;;;;;;;2.72;1.25;;;;;;;;;;5111530;28;20015;-70
2022/10/16 05:20:37;;;;;;;3.53;1.50;;;;;;;;;;5111458;28;20016;-68
2022/10/16 05:23:02;;;;;;;7.30;1.70;;;;;;;;;;5110012;28;20099;-69
2022/10/16 05:25:27;;;;;;;4.38;2.03;;;;;;;;;;5109539;28;20106;-66
2022/10/16 05:27:52;;;;;;;4.27;1.70;;;;;;;;;;5110614;28;20015;-66
2022/10/16 05:30:18;;;;;;;3.10;1.70;;;;;;;;;;5110530;28;20279;-66
2022/10/16 05:32:47;;;;;;;2.75;1.50;;;;;;;;;;5111188;28;20155;-67
2022/10/16 05:35:13;;;;;;;5.53;1.80;;;;;;;;;;5098280;28;20020;-67
2022/10/16 05:37:38;;;;;;;3.20;1.58;;;;;;;;;;5109369;28;20095;-67
2022/10/16 05:40:04;;;;;;;7.53;1.95;;;;;;;;;;5104348;28;20043;-68
2022/10/16 05:42:30;;;;;;;4.07;1.98;;;;;;;;;;5101913;28;20023;-67
2022/10/16 05:44:55;;;;;;;4.20;1.85;;;;;;;;;;5100475;28;20028;-67
2022/10/16 05:47:20;;;;;;;3.58;1.73;;;;;;;;;;5100891;28;20024;-67
2022/10/16 05:49:46;;;;;;;5.40;1.63;;;;;;;;;;5105453;28;20022;-69
2022/10/16 05:52:11;;;;;;;4.35;1.55;;;;;;;;;;5108623;28;20023;-70
2022/10/16 05:54:36;;;;;;;2.67;1.58;;;;;;;;;;5104599;28;20480;-67
2022/10/16 05:57:02;;;;;;;5.57;1.70;;;;;;;;;;5108802;28;20446;-69
2022/10/16 05:59:27;;;;;;;4.72;1.65;;;;;;;;;;5109893;28;20406;-68
2022/10/16 06:01:53;;;;;;;4.17;1.80;;;;;;;;;;5110262;28;20015;-68
2022/10/16 06:04:18;;;;;;;5.40;1.88;;;;;;;;;;5109773;28;20263;-66
2022/10/16 06:06:43;;;;;;;4.77;1.87;;;;;;;;;;5109798;28;20023;-68
2022/10/16 06:09:09;;;;;;;2.50;1.30;;;;;;;;;;5109837;28;20280;-70
2022/10/16 06:11:34;;;;;;;2.28;1.38;;;;;;;;;;5107812;28;20597;-68
2022/10/16 06:14:02;;;;;;;4.43;1.63;;;;;;;;;;5109103;28;20023;-68
2022/10/16 06:16:28;;;;;;;3.42;1.40;;;;;;;;;;5110362;28;20011;-67
2022/10/16 06:18:54;;;;;;;4.15;1.42;;;;;;;;;;5110477;28;20355;-67
2022/10/16 06:21:21;;;;;;;3.38;1.60;;;;;;;;;;5100072;28;20394;-69
2022/10/16 06:23:46;;;;;;;2.92;1.25;;;;;;;;;;5103328;28;20023;-67
2022/10/16 06:26:12;;;;;;;5.20;1.38;;;;;;;;;;5109255;28;20030;-69
2022/10/16 06:28:38;;;;;;;5.85;1.42;;;;;;;;;;5104927;28;20095;-69
2022/10/16 06:31:04;;;;;;;5.90;1.88;;;;;;;;;;5105936;28;20102;-69
2022/10/16 06:33:29;;;;;;;2.47;1.40;;;;;;;;;;5102550;28;20046;-68
2022/10/16 06:36:05;;;;;;;5.25;1.50;;;;;;;;;;5109296;28;20483;-67
2022/10/16 06:38:31;;;;;;;5.63;1.40;;;;;;;;;;5107626;28;20043;-67
2022/10/16 06:40:56;;;;;;;5.90;1.30;;;;;;;;;;5108543;28;20063;-68
2022/10/16 06:43:21;;;;;;;4.13;1.42;;;;;;;;;;5109366;28;20011;-70
2022/10/16 06:45:53;;;;;;;5.07;1.80;;;;;;;;;;5090657;28;20446;-68
2022/10/16 06:48:19;;;;;;;6.72;1.50;;;;;;;;;;5091902;28;20276;-67
2022/10/16 06:50:44;;;;;;;10.20;1.60;;;;;;;;;;5095456;28;20012;-68
2022/10/16 06:53:09;;;;;;;8.38;2.28;;;;;;;;;;5095122;27;20015;-71
2022/10/16 06:55:34;;;;;;;5.55;1.50;;;;;;;;;;5095866;28;20616;-67
2022/10/16 06:58:00;;;;;;;7.95;1.50;;;;;;;;;;5093985;28;20031;-66
2022/10/16 07:00:25;;;;;;;6.82;2.67;;;;;;;;;;5096008;28;20016;-70
2022/10/16 07:02:50;;;;;;;4.65;1.50;;;;;;;;;;5094326;28;20107;-67
2022/10/16 07:05:16;;;;;;;4.03;1.23;;;;;;;;;;5096224;28;20028;-68
2022/10/16 07:07:44;;;;;;;4.05;1.30;;;;;;;;;;5101581;28;20349;-70
2022/10/16 07:10:09;;;;;;;4.43;1.47;;;;;;;;;;5110351;28;20036;-70
2022/10/16 07:12:34;;;;;;;10.70;1.88;;;;;;;;;;5104081;28;20016;-70
2022/10/16 07:14:59;;;;;;;4.50;1.73;;;;;;;;;;5112678;28;20080;-72
2022/10/16 07:17:25;;;;;;;6.80;1.77;;;;;;;;;;5111672;28;20819;-70
2022/10/16 07:19:52;;;;;;;6.18;2.22;;;;;;;;;;5110930;28;20247;-69
2022/10/16 07:22:17;;;;;;;3.05;1.42;;;;;;;;;;5109304;28;20091;-68
2022/10/16 07:24:44;;;;;;;1.90;1.10;;;;;;;;;;5108832;28;20106;-69
2022/10/16 07:27:09;;;;;;;3.45;1.40;;;;;;;;;;5112608;27;20519;-70
2022/10/16 07:29:34;;;;;;;4.17;1.10;;;;;;;;;;5110977;27;20020;-70
2022/10/16 07:31:59;;;;;;;4.73;1.40;;;;;;;;;;5111772;28;20252;-71
2022/10/16 07:34:26;;;;;;;9.63;2.22;;;;;;;;;;5112698;28;20688;-70
2022/10/16 07:36:51;;;;;;;3.63;1.50;;;;;;;;;;5110717;28;20106;-70
2022/10/16 07:39:16;;;;;;;3.90;1.40;;;;;;;;;;5111131;28;20110;-69
2022/10/16 07:41:42;;;;;;;2.08;1.20;;;;;;;;;;5112110;28;20052;-71
2022/10/16 07:44:07;;;;;;;3.10;1.15;;;;;;;;;;5112987;28;20024;-72
2022/10/16 07:46:33;;;;;;;2.13;1.27;;;;;;;;;;5112145;28;20330;-70
2022/10/16 07:48:59;;;;;;;2.80;1.10;;;;;;;;;;5099837;28;20404;-70
2022/10/16 07:51:25;;;;;;;1.90;0.98;;;;;;;;;;5110908;28;20477;-68
2022/10/16 07:53:51;;;;;;;2.58;0.90;;;;;;;;;;5109346;28;20128;-71
2022/10/16 07:56:17;;;;;;;2.03;1.13;;;;;;;;;;5100850;28;20114;-68
2022/10/16 07:58:42;;;;;;;5.60;1.17;;;;;;;;;;5109817;28;20393;-72
2022/10/16 08:01:08;;;;;;;1.90;0.80;;;;;;;;;;5110799;28;20356;-69
2022/10/16 08:03:34;;;;;;;1.95;1.00;;;;;;;;;;5111920;28;20102;-71
2022/10/16 08:05:59;;;;;;;2.28;0.70;;;;;;;;;;5112182;28;20135;-70
2022/10/16 08:08:25;;;;;;;3.88;1.70;;;;;;;;;;5111887;28;20016;-67
2022/10/16 08:10:50;;;;;;;5.03;2.00;;;;;;;;;;5113077;27;20505;-69
2022/10/16 08:13:15;;;;;;;4.75;1.58;;;;;;;;;;5099677;28;20024;-67
2022/10/16 08:15:41;;;;;;;1.70;1.00;;;;;;;;;;5110827;28;20019;-68
2022/10/16 08:18:07;;;;;;;4.43;0.80;;;;;;;;;;5110190;28;20015;-69
2022/10/16 08:20:32;;;;;;;6.35;1.00;;;;;;;;;;5111804;28;20113;-71
2022/10/16 08:22:58;;;;;;;1.75;0.73;;;;;;;;;;5111027;28;20011;-69
2022/10/16 08:25:24;;;;;;;1.30;0.60;;;;;;;;;;5110223;28;20031;-67
2022/10/16 08:27:50;;;;;;;2.00;0.85;;;;;;;;;;5111942;28;20023;-67
2022/10/16 08:30:15;;;;;;;0.70;0.60;;;;;;;;;;5106627;28;20106;-71
2022/10/16 08:32:41;;;;;;;1.70;0.73;;;;;;;;;;5104762;28;20022;-70
2022/10/16 08:35:07;;;;;;;3.70;0.70;;;;;;;;;;5102673;28;20032;-65
2022/10/16 08:37:32;;;;;;;1.85;1.73;;;;;;;;;;5105738;28;20094;-68
2022/10/16 08:39:58;;;;;;;1.33;0.77;;;;;;;;;;5107357;28;20020;-69
2022/10/16 08:42:29;;;;;;;0.98;0.63;;;;;;;;;;5107621;28;20020;-68
2022/10/16 08:45:13;;;;;;;2.03;0.88;;;;;;;;;;5111322;28;20076;-68
2022/10/16 08:47:44;;;;;;;0.93;0.75;;;;;;;;;;5102366;28;20031;-70
2022/10/16 08:50:11;;;;;;;0.63;0.60;;;;;;;;;;5111418;28;20034;-69
2022/10/16 08:52:39;;;;;;;3.03;0.80;;;;;;;;;;5109749;28;20384;-68
2022/10/16 08:55:04;;;;;;;2.07;0.80;;;;;;;;;;5107586;28;20012;-70
2022/10/16 08:57:31;;;;;;;2.47;0.63;;;;;;;;;;5103901;28;20106;-67
2022/10/16 09:00:00;;;;;;;0.55;0.50;;;;;;;;;;5100577;28;20039;-72
2022/10/16 09:02:25;;;;;;;;;;;;;;;;;;5109454;28;20016;-70
2022/10/16 09:04:53;;;;;;;2.03;0.77;;;;;;;;;;5110778;28;20323;-70
2022/10/16 09:07:24;;;;;;;0.52;0.52;;;;;;;;;;5107323;28;20810;-72
2022/10/16 09:09:56;;;;;;;1.10;0.80;;;;;;;;;;5101004;28;20314;-71
2022/10/16 09:12:27;;;;;;;1.63;0.95;;;;;;;;;;5110149;28;20089;-69
2022/10/16 09:15:05;;;;;;;1.50;0.50;;;;;;;;;;5097791;28;20015;-69
2022/10/16 09:17:31;;;;;;;0.40;0.40;;;;;;;;;;5110674;28;20145;-70
2022/10/16 09:20:14;;;;;;;1.85;0.60;;;;;;;;;;5111039;28;20110;-71
2022/10/16 09:22:40;;;;;;;3.60;0.90;;;;;;;;;;5109796;28;20031;-70
2022/10/16 09:25:11;;;;;;;0.85;0.60;;;;;;;;;;5111113;28;20015;-71
2022/10/16 09:27:36;;;;;;;2.00;0.65;;;;;;;;;;5111010;28;20393;-68
2022/10/16 09:30:10;;;;;;;1.98;0.60;;;;;;;;;;5113082;28;20024;-72
2022/10/16 09:32:35;;;;;;;0.80;0.60;;;;;;;;;;5106907;28;20019;-67
2022/10/16 09:35:01;;;;;;;2.92;0.85;;;;;;;;;;5112425;28;20095;-70
2022/10/16 09:37:26;;;;;;;1.23;0.70;;;;;;;;;;5112453;28;20031;-70
2022/10/16 09:39:52;;;;;;;2.17;0.57;;;;;;;;;;5113573;28;20038;-70
2022/10/16 09:42:17;;;;;;;5.28;0.90;;;;;;;;;;5112578;28;20060;-69
2022/10/16 09:44:46;;;;;;;0.90;0.60;;;;;;;;;;5114385;28;20030;-71
2022/10/16 09:47:14;;;;;;;2.38;1.20;;;;;;;;;;5112647;28;20320;-70
2022/10/16 09:49:39;;;;;;;1.17;0.80;;;;;;;;;;5111819;28;20047;-70
2022/10/16 09:52:14;;;;;;;1.55;0.80;;;;;;;;;;5111463;28;20030;-68
2022/10/16 09:54:53;;;;;;;3.17;0.95;;;;;;;;;;5112751;28;20028;-68
2022/10/16 09:57:18;;;;;;;2.88;0.82;;;;;;;;;;5111408;28;20025;-67
2022/10/16 09:59:47;;;;;;;2.05;0.90;;;;;;;;;;5111460;28;20417;-68
2022/10/16 10:02:13;;;;;;;1.08;0.80;;;;;;;;;;5112459;28;20334;-70
2022/10/16 10:04:40;;;;;;;2.00;0.93;;;;;;;;;;5110780;28;20035;-68
2022/10/16 10:07:06;;;;;;;2.17;1.40;;;;;;;;;;5098825;28;20057;-69
2022/10/16 10:09:36;;;;;;;1.25;0.90;;;;;;;;;;5108695;28;20015;-70
2022/10/16 10:12:02;;;;;;;2.22;1.00;;;;;;;;;;5102362;28;20456;-70
2022/10/16 10:14:30;;;;;;;1.90;1.10;;;;;;;;;;5092100;28;20015;-70
2022/10/16 10:17:09;;;;;;;4.20;1.38;;;;;;;;;;5090650;28;20047;-68
2022/10/16 10:19:57;;;;;;;2.05;1.20;;;;;;;;;;5095696;28;20126;-70
2022/10/16 10:22:22;;;;;;;;;;;;;;;;;;5081809;28;20081;-68
2022/10/16 10:25:00;;;;;;;4.53;1.13;;;;;;;;;;5096463;28;20040;-69
2022/10/16 10:27:30;;;;;;;1.58;0.98;;;;;;;;;;5096289;28;20053;-69
2022/10/16 10:29:57;;;;;;;2.83;1.00;;;;;;;;;;5094692;28;20072;-69
2022/10/16 10:32:36;;;;;;;2.67;0.98;;;;;;;;;;5099016;28;20104;-67
2022/10/16 10:35:14;;;;;;;1.92;1.15;;;;;;;;;;5098068;28;20070;-70
2022/10/16 10:37:54;;;;;;;3.45;0.93;;;;;;;;;;5109479;28;20023;-70
2022/10/16 10:40:40;;;;;;;6.65;1.00;;;;;;;;;;5112243;28;20071;-72
2022/10/16 10:43:24;;;;;;;1.60;1.00;;;;;;;;;;5111913;28;20032;-71
2022/10/16 10:45:52;;;;;;;8.25;1.20;;;;;;;;;;5112142;28;20042;-72
2022/10/16 10:48:22;;;;;;;3.60;0.80;;;;;;;;;;5107648;28;20016;-71
2022/10/16 10:50:53;;;;;;;1.27;0.90;;;;;;;;;;5112417;28;20735;-70
2022/10/16 10:53:22;;;;;;;1.85;1.00;;;;;;;;;;5109788;28;20035;-72
2022/10/16 10:56:02;;;;;;;3.17;0.98;;;;;;;;;;5110800;28;20023;-70
2022/10/16 10:58:28;;;;;;;1.80;1.10;;;;;;;;;;5108642;28;20035;-69
2022/10/16 11:00:56;;;;;;;5.20;1.20;;;;;;;;;;5107806;28;20030;-69
2022/10/16 11:03:24;;;;;;;2.60;1.52;;;;;;;;;;5107395;28;20267;-70
2022/10/16 11:06:07;;;;;;;2.38;1.30;;;;;;;;;;5105294;28;20028;-69
2022/10/16 11:08:37;;;;;;;5.30;1.20;;;;;;;;;;5105918;28;20045;-68
2022/10/16 11:11:19;;;;;;;1.95;1.20;;;;;;;;;;5105669;28;20012;-68
2022/10/16 11:13:53;;;;;;;6.10;1.45;;;;;;;;;;5108595;28;20047;-68
2022/10/16 11:16:26;;;;;;;4.05;1.10;;;;;;;;;;5100451;28;20020;-70
2022/10/16 11:19:09;;;;;;;1.95;1.08;;;;;;;;;;5109291;28;20455;-69
2022/10/16 11:21:39;;;;;;;1.90;1.17;;;;;;;;;;5109446;28;20077;-68
2022/10/16 11:24:10;;;;;;;2.25;1.25;;;;;;;;;;5109139;28;20099;-68
2022/10/16 11:26:39;;;;;;;2.97;1.40;;;;;;;;;;5104476;28;20600;-69
2022/10/16 11:29:08;;;;;;;4.18;1.27;;;;;;;;;;5109860;28;20028;-68
2022/10/16 11:31:33;;;;;;;2.88;1.20;;;;;;;;;;5108430;28;20024;-68
2022/10/16 11:34:01;;;;;;;2.17;1.30;;;;;;;;;;5109013;28;20095;-69
2022/10/16 11:36:35;;;;;;;8.13;1.27;;;;;;;;;;5111763;28;20286;-71
2022/10/16 11:39:04;;;;;;;2.35;1.23;;;;;;;;;;5114326;28;20118;-70
2022/10/16 11:41:29;;;;;;;4.95;1.40;;;;;;;;;;5114233;28;20111;-71
2022/10/16 11:44:15;;;;;;;2.45;1.40;;;;;;;;;;5110884;28;20055;-69
2022/10/16 11:46:43;;;;;;;2.50;1.30;;;;;;;;;;5107780;28;20125;-69
2022/10/16 11:49:16;;;;;;;4.22;0.98;;;;;;;;;;5114509;28;20019;-68
2022/10/16 11:51:45;;;;;;;4.00;1.10;;;;;;;;;;5115260;28;20370;-71
2022/10/16 11:54:16;;;;;;;3.30;1.25;;;;;;;;;;5112328;28;20026;-71
2022/10/16 11:56:44;;;;;;;2.58;1.23;;;;;;;;;;5114052;28;20080;-68
2022/10/16 11:59:27;;;;;;;2.08;1.33;;;;;;;;;;5113735;28;20483;-69
2022/10/16 12:01:55;;;;;;;2.28;1.27;;;;;;;;;;5112890;28;20022;-70
2022/10/16 12:04:34;;;;;;;3.05;1.20;;;;;;;;;;5111508;28;20021;-69
2022/10/16 12:06:59;;;;;;;;;;;;;;;;;;5104841;28;20028;-68
2022/10/16 12:09:26;;;;;;;2.15;1.25;;;;;;;;;;5111176;28;20041;-68
2022/10/16 12:11:51;;;;;;;4.10;1.05;;;;;;;;;;5112107;28;20011;-69
2022/10/16 12:14:21;;;;;;;3.10;1.75;;;;;;;;;;5112424;28;20031;-70
2022/10/16 12:16:55;;;;;;;3.70;1.10;;;;;;;;;;5113036;28;20020;-69
2022/10/16 12:19:21;;;;;;;2.35;1.20;;;;;;;;;;5111585;28;20031;-68
2022/10/16 12:21:46;;;;;;;1.67;1.13;;;;;;;;;;5112741;28;20015;-69
2022/10/16 12:24:30;;;;;;;2.08;1.20;;;;;;;;;;5111892;28;20024;-68
2022/10/16 12:26:55;;;;;;;3.20;1.52;;;;;;;;;;5112103;28;20047;-69
2022/10/16 12:29:26;;;;;;;1.70;1.13;;;;;;;;;;5108683;28;20055;-68
2022/10/16 12:31:52;;;;;;;1.42;1.15;;;;;;;;;;5107690;28;20019;-69
2022/10/16 12:34:23;;;;;;;1.67;1.00;;;;;;;;;;5112397;28;20022;-69
2022/10/16 12:36:48;;;;;;;2.60;1.00;;;;;;;;;;5112145;28;20024;-69
2022/10/16 12:39:20;;;;;;;2.08;0.98;;;;;;;;;;5110557;28;20073;-68
2022/10/16 12:41:45;;;;;;;2.17;1.20;;;;;;;;;;5111954;28;20068;-68
2022/10/16 12:44:23;;;;;;;4.67;1.17;;;;;;;;;;5113660;28;20111;-69
2022/10/16 12:46:50;;;;;;;9.15;1.20;;;;;;;;;;5110425;28;20264;-68
2022/10/16 12:49:28;;;;;;;1.63;0.80;;;;;;;;;;5112949;28;20019;-67
2022/10/16 12:51:54;;;;;;;2.88;1.10;;;;;;;;;;5112191;28;20039;-67
2022/10/16 12:54:19;;;;;;;1.55;1.00;;;;;;;;;;5112335;28;20043;-70
2022/10/16 12:56:53;;;;;;;2.53;1.40;;;;;;;;;;5110681;28;20032;-68
2022/10/16 12:59:21;;;;;;;1.83;0.90;;;;;;;;;;5111441;28;20305;-71
2022/10/16 13:02:17;;;;;;;1.70;0.80;;;;;;;;;;5105190;28;20414;-68
2022/10/16 13:05:00;;;;;;;5.93;1.48;;;;;;;;;;5110203;28;20110;-68
2022/10/16 13:07:25;;;;;;;2.50;0.93;;;;;;;;;;5102901;28;20042;-70
2022/10/16 13:10:09;;;;;;;2.93;1.30;;;;;;;;;;5106165;28;20016;-66
2022/10/16 13:12:53;;;;;;;3.45;1.20;;;;;;;;;;5111693;28;20248;-68
2022/10/16 13:15:28;;;;;;;1.60;1.02;;;;;;;;;;5100402;28;20022;-69
2022/10/16 13:18:00;;;;;;;1.58;0.93;;;;;;;;;;5111263;28;20022;-68
2022/10/16 13:20:31;;;;;;;2.03;1.02;;;;;;;;;;5111335;28;20084;-68
2022/10/16 13:22:57;;;;;;;4.18;0.90;;;;;;;;;;5108963;28;20043;-67
2022/10/16 13:25:22;;;;;;;1.15;0.90;;;;;;;;;;5111561;28;20104;-69
2022/10/16 13:27:55;;;;;;;1.80;1.00;;;;;;;;;;5112220;28;20020;-66
2022/10/16 13:30:23;;;;;;;2.63;1.10;;;;;;;;;;5111947;28;20275;-71
2022/10/16 13:32:49;;;;;;;1.73;0.95;;;;;;;;;;5110422;28;20024;-68
2022/10/16 13:35:18;;;;;;;1.90;1.02;;;;;;;;;;5113542;28;20020;-68
2022/10/16 13:37:44;;;;;;;1.85;1.00;;;;;;;;;;5113508;28;20027;-68
2022/10/16 13:40:17;;;;;;;1.80;1.00;;;;;;;;;;5111512;28;20671;-67
2022/10/16 13:42:43;;;;;;;2.50;0.80;;;;;;;;;;5108634;27;20265;-69
2022/10/16 13:45:17;;;;;;;2.00;0.93;;;;;;;;;;5102047;28;20011;-68
2022/10/16 13:47:42;;;;;;;0.80;0.70;;;;;;;;;;5099275;28;20546;-69
2022/10/16 13:50:14;;;;;;;2.25;1.08;;;;;;;;;;5098868;28;20020;-69
2022/10/16 13:52:41;;;;;;;3.47;1.10;;;;;;;;;;5100973;28;20112;-67
2022/10/16 13:55:24;;;;;;;2.53;1.20;;;;;;;;;;5106140;28;20026;-69
2022/10/16 13:57:49;;;;;;;2.78;0.98;;;;;;;;;;5098211;28;20020;-69
2022/10/16 14:00:22;;;;;;;1.15;0.90;;;;;;;;;;5099768;28;20043;-68
2022/10/16 14:02:53;;;;;;;2.95;1.15;;;;;;;;;;5099980;28;20034;-70
2022/10/16 14:05:18;;;;;;;2.83;1.20;;;;;;;;;;5102980;28;20366;-68
2022/10/16 14:07:43;;;;;;;3.15;1.20;;;;;;;;;;5104840;28;20026;-67
2022/10/16 14:10:30;;;;;;;2.05;1.05;;;;;;;;;;5106757;28;20098;-68
2022/10/16 14:13:05;;;;;;;6.43;1.38;;;;;;;;;;5094688;28;20012;-69
2022/10/16 14:15:31;;;;;;;3.47;1.25;;;;;;;;;;5104805;28;20015;-67
2022/10/16 14:17:57;;;;;;;2.92;1.52;;;;;;;;;;5096322;28;20019;-66
2022/10/16 14:20:26;;;;;;;2.33;1.00;;;;;;;;;;5097364;28;20024;-69
2022/10/16 14:22:58;;;;;;;2.33;1.02;;;;;;;;;;5096792;28;20023;-69
2022/10/16 14:25:28;;;;;;;2.35;1.15;;;;;;;;;;5104240;28;20116;-70
2022/10/16 14:28:04;;;;;;;3.42;1.10;;;;;;;;;;5108471;28;20015;-68
2022/10/16 14:30:30;;;;;;;1.80;1.17;;;;;;;;;;5105132;28;20020;-69
2022/10/16 14:32:55;;;;;;;2.20;1.10;;;;;;;;;;5095649;28;20019;-68
2022/10/16 14:35:25;;;;;;;2.55;1.10;;;;;;;;;;5107598;28;20038;-67
2022/10/16 14:37:54;;;;;;;4.85;1.73;;;;;;;;;;5100646;28;20027;-67
2022/10/16 14:40:20;;;;;;;2.38;1.38;;;;;;;;;;5109591;28;20027;-70
2022/10/16 14:42:45;;;;;;;2.80;1.20;;;;;;;;;;5100687;28;20031;-70
2022/10/16 14:45:11;;;;;;;2.28;1.20;;;;;;;;;;5111971;28;20102;-68
2022/10/16 14:47:38;;;;;;;3.63;1.15;;;;;;;;;;5111224;28;20468;-70